createdAt,value
2022-11-24T00:01:29.478Z,62.59
2022-11-24T00:03:59.992Z,62.77
2022-11-24T00:06:30.484Z,62.54
2022-11-24T00:09:00.259Z,62.50
2022-11-24T00:11:33.929Z,62.75
2022-11-24T00:14:03.436Z,62.09
2022-11-24T00:16:33.749Z,62.00
2022-11-24T00:19:05.479Z,61.61
2022-11-24T00:21:35.163Z,61.81
2022-11-24T00:24:03.890Z,62.42
2022-11-24T00:26:34.576Z,62.12
2022-11-24T00:29:07.647Z,62.63
2022-11-24T00:31:38.081Z,63.32
2022-11-24T00:34:09.151Z,62.85
2022-11-24T00:36:40.064Z,62.71
2022-11-24T00:39:12.177Z,61.97
2022-11-24T00:41:41.068Z,61.99
2022-11-24T00:44:10.266Z,62.47
2022-11-24T00:46:38.674Z,62.14
2022-11-24T00:49:07.548Z,62.41
2022-11-24T00:51:35.971Z,61.98
2022-11-24T00:54:06.384Z,61.72
2022-11-24T00:56:34.882Z,61.36
2022-11-24T00:59:03.500Z,61.47
2022-11-24T01:01:32.108Z,61.22
2022-11-24T01:04:02.596Z,62.45
2022-11-24T01:06:32.540Z,61.82
2022-11-24T01:09:01.335Z,62.11
2022-11-24T01:11:54.212Z,61.09
2022-11-24T01:14:25.054Z,60.99
2022-11-24T01:16:54.142Z,60.36
2022-11-24T01:19:23.500Z,60.65
2022-11-24T01:21:52.308Z,61.64
2022-11-24T01:24:21.065Z,61.36
2022-11-24T01:26:50.738Z,61.22
2022-11-24T01:29:19.397Z,60.91
2022-11-24T01:31:47.778Z,61.47
2022-11-24T01:34:16.366Z,60.81
2022-11-24T01:36:44.847Z,60.67
2022-11-24T01:39:14.380Z,61.07
2022-11-24T01:41:42.713Z,60.71
2022-11-24T01:44:24.486Z,60.20
2022-11-24T01:46:58.737Z,60.53
2022-11-24T01:49:40.514Z,60.73
2022-11-24T01:52:14.735Z,60.13
2022-11-24T01:54:47.444Z,60.56
2022-11-24T01:57:21.258Z,60.43
2022-11-24T01:59:53.868Z,60.09
2022-11-24T02:02:29.707Z,59.72
2022-11-24T02:05:04.483Z,60.86
2022-11-24T02:07:33.887Z,59.77
2022-11-24T02:10:09.022Z,60.14
2022-11-24T02:12:38.939Z,59.58
2022-11-24T02:15:11.859Z,59.48
2022-11-24T02:17:40.157Z,59.78
2022-11-24T02:20:11.687Z,59.63
2022-11-24T02:22:47.218Z,59.55
2022-11-24T02:25:25.010Z,59.58
2022-11-24T02:27:57.098Z,59.91
2022-11-24T02:30:25.791Z,59.65
2022-11-24T02:32:54.143Z,60.46
2022-11-24T02:35:22.856Z,60.71
2022-11-24T02:37:51.312Z,60.14
2022-11-24T02:40:25.074Z,59.64
2022-11-24T02:42:57.836Z,59.35
2022-11-24T02:45:27.801Z,59.32
2022-11-24T02:47:56.190Z,59.37
2022-11-24T02:50:24.784Z,59.72
2022-11-24T02:52:53.217Z,59.93
2022-11-24T02:55:21.970Z,61.91
2022-11-24T02:57:50.342Z,60.89
2022-11-24T03:00:20.988Z,61.59
2022-11-24T03:02:49.357Z,61.04
2022-11-24T03:05:18.235Z,61.82
2022-11-24T03:07:46.616Z,61.65
2022-11-24T03:10:15.434Z,61.57
2022-11-24T03:12:43.802Z,61.09
2022-11-24T03:15:12.545Z,60.88
2022-11-24T03:17:42.205Z,60.88
2022-11-24T03:20:12.127Z,59.78
2022-11-24T03:22:40.659Z,60.11
2022-11-24T03:25:10.027Z,59.01
2022-11-24T03:27:38.375Z,58.75
2022-11-24T03:30:08.714Z,59.16
2022-11-24T03:32:37.126Z,59.10
2022-11-24T03:35:07.920Z,59.13
2022-11-24T03:37:36.554Z,58.17
2022-11-24T03:40:06.076Z,57.95
2022-11-24T03:42:34.530Z,59.01
2022-11-24T03:45:30.027Z,59.48
2022-11-24T03:47:52.150Z,58.31
2022-11-24T03:50:22.113Z,58.82
2022-11-24T03:52:50.442Z,58.63
2022-11-24T03:55:19.025Z,58.20
2022-11-24T03:57:47.787Z,58.28
2022-11-24T04:00:17.554Z,58.98
2022-11-24T04:02:45.987Z,58.47
2022-11-24T04:05:15.509Z,58.40
2022-11-24T04:07:45.214Z,58.62
2022-11-24T04:10:14.319Z,58.89
2022-11-24T04:12:44.745Z,58.88
2022-11-24T04:15:15.492Z,58.62
2022-11-24T04:17:43.954Z,58.49
2022-11-24T04:20:13.797Z,58.31
2022-11-24T04:22:42.463Z,59.27
2022-11-24T04:25:13.027Z,59.01
2022-11-24T04:27:41.410Z,58.91
2022-11-24T04:30:11.218Z,58.18
2022-11-24T04:32:39.607Z,58.42
2022-11-24T04:35:08.987Z,58.09
2022-11-24T04:37:37.331Z,58.68
2022-11-24T04:40:07.496Z,58.48
2022-11-24T04:42:37.274Z,58.22
2022-11-24T04:45:07.242Z,59.41
2022-11-24T04:47:35.919Z,58.80
2022-11-24T04:50:07.673Z,59.33
2022-11-24T04:52:36.247Z,58.28
2022-11-24T04:55:05.079Z,58.89
2022-11-24T04:57:33.487Z,58.16
2022-11-24T05:00:04.090Z,59.24
2022-11-24T05:02:32.459Z,58.89
2022-11-24T05:05:01.327Z,57.98
2022-11-24T05:07:30.051Z,58.30
2022-11-24T05:10:16.382Z,58.18
2022-11-24T05:12:51.035Z,58.23
2022-11-24T05:15:21.380Z,58.71
2022-11-24T05:17:49.922Z,58.70
2022-11-24T05:20:19.335Z,58.15
2022-11-24T05:22:47.802Z,58.74
2022-11-24T05:25:16.710Z,58.38
2022-11-24T05:27:45.230Z,58.28
2022-11-24T05:30:14.939Z,57.83
2022-11-24T05:32:45.271Z,58.07
2022-11-24T05:35:15.626Z,57.95
2022-11-24T05:37:43.932Z,57.84
2022-11-24T05:40:12.740Z,57.95
2022-11-24T05:42:47.686Z,57.97
2022-11-24T05:45:19.145Z,57.87
2022-11-24T05:47:50.086Z,58.19
2022-11-24T05:50:21.217Z,57.84
2022-11-24T05:52:50.482Z,58.45
2022-11-24T05:55:20.536Z,58.69
2022-11-24T05:57:48.963Z,57.82
2022-11-24T06:00:20.187Z,57.77
2022-11-24T06:02:50.252Z,57.64
2022-11-24T06:05:19.095Z,58.05
2022-11-24T06:07:47.605Z,57.18
2022-11-24T06:10:16.917Z,58.23
2022-11-24T06:12:45.505Z,57.80
2022-11-24T06:15:14.821Z,57.70
2022-11-24T06:17:43.315Z,57.25
2022-11-24T06:20:13.645Z,57.53
2022-11-24T06:22:42.060Z,57.24
2022-11-24T06:25:11.083Z,56.95
2022-11-24T06:27:39.545Z,57.23
2022-11-24T06:30:09.392Z,57.65
2022-11-24T06:32:38.936Z,56.97
2022-11-24T06:35:08.103Z,56.48
2022-11-24T06:37:38.768Z,56.67
2022-11-24T06:40:09.978Z,57.20
2022-11-24T06:42:38.498Z,56.97
2022-11-24T06:45:09.533Z,57.31
2022-11-24T06:47:38.439Z,58.43
2022-11-24T06:50:09.192Z,57.24
2022-11-24T06:52:39.097Z,56.06
2022-11-24T06:55:08.937Z,57.22
2022-11-24T06:57:37.589Z,56.12
2022-11-24T07:00:08.285Z,55.50
2022-11-24T07:02:41.089Z,56.69
2022-11-24T07:05:13.128Z,55.54
2022-11-24T07:07:43.157Z,56.06
2022-11-24T07:10:12.038Z,56.14
2022-11-24T07:12:40.485Z,56.04
2022-11-24T07:15:10.231Z,55.55
2022-11-24T07:17:39.387Z,56.55
2022-11-24T07:20:09.993Z,55.39
2022-11-24T07:22:38.551Z,56.02
2022-11-24T07:25:10.332Z,55.89
2022-11-24T07:27:38.773Z,55.57
2022-11-24T07:30:09.022Z,55.87
2022-11-24T07:32:38.105Z,54.79
2022-11-24T07:35:07.333Z,55.57
2022-11-24T07:37:36.009Z,55.11
2022-11-24T07:40:04.768Z,58.02
2022-11-24T07:42:35.074Z,57.83
2022-11-24T07:45:03.727Z,57.72
2022-11-24T07:47:32.651Z,57.42
2022-11-24T07:50:01.079Z,57.08
2022-11-24T07:52:29.949Z,56.83
2022-11-24T07:54:58.412Z,57.56
2022-11-24T07:57:29.179Z,56.40
2022-11-24T07:59:59.158Z,57.33
2022-11-24T08:02:27.959Z,56.96
2022-11-24T08:04:56.479Z,58.38
2022-11-24T08:07:25.584Z,57.86
2022-11-24T08:09:54.063Z,57.32
2022-11-24T08:12:22.789Z,58.22
2022-11-24T08:14:51.800Z,59.27
2022-11-24T08:17:21.967Z,59.19
2022-11-24T08:19:50.378Z,58.60
2022-11-24T08:22:19.076Z,58.34
2022-11-24T08:24:48.913Z,58.51
2022-11-24T08:27:17.683Z,59.08
2022-11-24T08:29:46.837Z,60.06
2022-11-24T08:32:21.961Z,59.40
2022-11-24T08:34:59.524Z,59.72
2022-11-24T08:37:32.320Z,59.44
2022-11-24T08:40:00.988Z,59.93
2022-11-24T08:42:30.110Z,59.60
2022-11-24T08:44:59.201Z,59.39
2022-11-24T08:47:28.031Z,59.68
2022-11-24T08:49:57.857Z,62.01
2022-11-24T08:52:26.668Z,63.25
2022-11-24T08:54:55.061Z,62.70
2022-11-24T08:57:24.787Z,64.08
2022-11-24T08:59:53.319Z,62.75
2022-11-24T09:02:21.816Z,63.84
2022-11-24T09:04:51.351Z,63.77
2022-11-24T09:07:22.024Z,62.48
2022-11-24T09:09:51.399Z,61.89
2022-11-24T09:12:20.296Z,61.91
2022-11-24T09:14:49.514Z,61.48
2022-11-24T09:17:19.367Z,61.07
2022-11-24T09:19:48.549Z,62.25
2022-11-24T09:22:19.354Z,61.84
2022-11-24T09:24:49.754Z,61.80
2022-11-24T09:27:18.770Z,62.69
2022-11-24T09:29:47.760Z,62.66
2022-11-24T09:32:16.270Z,63.50
2022-11-24T09:34:45.157Z,64.62
2022-11-24T09:37:13.735Z,64.24
2022-11-24T09:39:42.562Z,63.55
2022-11-24T09:42:18.015Z,63.86
2022-11-24T09:45:11.042Z,62.95
2022-11-24T09:47:52.529Z,62.39
2022-11-24T09:50:23.919Z,61.52
2022-11-24T09:53:01.504Z,62.10
2022-11-24T09:55:39.742Z,62.40
2022-11-24T09:58:17.135Z,61.15
2022-11-24T10:00:47.899Z,60.35
2022-11-24T10:03:21.698Z,62.26
2022-11-24T10:05:52.354Z,63.55
2022-11-24T10:08:31.711Z,61.02
2022-11-24T10:11:02.286Z,62.68
2022-11-24T10:14:24.309Z,63.21
2022-11-24T10:16:58.774Z,63.71
2022-11-24T10:19:41.395Z,63.11
2022-11-24T10:22:26.143Z,64.88
2022-11-24T10:25:08.925Z,63.53
2022-11-24T10:27:42.925Z,62.72
2022-11-24T10:30:19.353Z,62.55
2022-11-24T10:32:50.232Z,61.82
2022-11-24T10:35:22.468Z,61.88
2022-11-24T10:37:59.350Z,61.85
2022-11-24T10:43:27.922Z,60.83
2022-11-24T10:46:07.444Z,59.98
2022-11-24T10:48:42.701Z,60.98
2022-11-24T10:51:38.132Z,60.04
2022-11-24T10:54:13.713Z,61.34
2022-11-24T10:56:42.751Z,60.24
2022-11-24T10:59:32.222Z,61.09
2022-11-24T11:02:02.730Z,60.89
2022-11-24T11:04:33.534Z,60.67
2022-11-24T11:07:10.567Z,60.35
2022-11-24T11:09:39.310Z,60.07
2022-11-24T11:12:36.300Z,59.70
2022-11-24T11:15:23.227Z,58.44
2022-11-24T11:17:57.496Z,58.63
2022-11-24T11:20:30.734Z,57.35
2022-11-24T11:23:02.220Z,58.80
2022-11-24T11:25:36.832Z,59.77
2022-11-24T11:28:26.727Z,59.48
2022-11-24T11:31:21.107Z,59.57
2022-11-24T11:34:06.978Z,60.17
2022-11-24T11:36:43.448Z,60.60
2022-11-24T11:39:24.210Z,61.59
2022-11-24T11:41:59.932Z,61.38
2022-11-24T11:44:38.475Z,60.94
2022-11-24T11:47:16.909Z,61.41
2022-11-24T11:49:49.630Z,62.03
2022-11-24T11:52:52.150Z,62.81
2022-11-24T11:55:50.205Z,61.28
2022-11-24T11:58:45.257Z,62.01
2022-11-24T12:01:30.199Z,62.72
2022-11-24T12:04:12.157Z,62.70
2022-11-24T12:06:57.699Z,63.54
2022-11-24T12:09:37.932Z,61.81
2022-11-24T12:12:27.114Z,62.32
2022-11-24T12:15:10.808Z,61.62
2022-11-24T12:17:44.774Z,61.30
2022-11-24T12:20:32.894Z,60.61
2022-11-24T12:23:11.402Z,60.70
2022-11-24T12:25:43.654Z,60.68
2022-11-24T12:28:26.843Z,61.01
2022-11-24T12:31:06.892Z,61.47
2022-11-24T12:34:01.345Z,61.68
2022-11-24T12:36:47.480Z,61.90
2022-11-24T12:39:26.738Z,62.08
2022-11-24T12:42:06.304Z,61.92
2022-11-24T12:44:57.921Z,62.63
2022-11-24T12:47:37.967Z,62.89
2022-11-24T12:50:12.724Z,62.84
2022-11-24T12:52:47.893Z,63.44
2022-11-24T12:55:20.950Z,63.23
2022-11-24T12:57:59.805Z,63.24
2022-11-24T13:00:36.048Z,63.84
2022-11-24T13:03:25.323Z,63.21
2022-11-24T13:05:58.925Z,63.31
2022-11-24T13:08:29.226Z,63.86
2022-11-24T13:11:39.918Z,63.70
2022-11-24T13:14:14.997Z,63.26
2022-11-24T13:19:46.203Z,63.65
2022-11-24T13:22:18.062Z,63.52
2022-11-24T13:24:46.959Z,63.82
2022-11-24T13:27:44.685Z,63.88
2022-11-24T13:30:54.314Z,63.69
2022-11-24T13:33:34.340Z,63.26
2022-11-24T13:36:32.361Z,63.87
2022-11-24T13:39:02.803Z,64.14
2022-11-24T13:42:08.706Z,63.46
2022-11-24T13:44:56.934Z,63.26
2022-11-24T13:47:41.453Z,63.41
2022-11-24T13:50:25.770Z,63.84
2022-11-24T13:53:07.427Z,63.24
2022-11-24T13:55:39.815Z,63.38
2022-11-24T13:58:36.796Z,62.62
2022-11-24T14:01:14.273Z,63.25
2022-11-24T14:04:33.248Z,62.94
2022-11-24T14:09:55.733Z,64.33
2022-11-24T14:12:26.791Z,65.02
2022-11-24T14:15:13.849Z,65.38
2022-11-24T14:17:42.615Z,65.81
2022-11-24T14:20:23.415Z,66.27
2022-11-24T14:22:52.472Z,65.43
2022-11-24T14:25:31.554Z,65.83
2022-11-24T14:28:01.263Z,66.14
2022-11-24T14:30:30.306Z,68.03
2022-11-24T14:33:01.178Z,69.15
2022-11-24T14:35:31.366Z,69.66
2022-11-24T14:38:00.950Z,70.35
2022-11-24T14:40:42.952Z,69.75
2022-11-24T14:43:24.620Z,69.99
2022-11-24T14:45:56.041Z,70.14
2022-11-24T14:48:28.260Z,70.56
2022-11-24T14:51:08.784Z,70.59
2022-11-24T14:53:41.782Z,68.90
2022-11-24T14:56:24.046Z,67.61
2022-11-24T14:58:52.900Z,66.32
2022-11-24T15:01:30.115Z,65.36
2022-11-24T15:07:18.049Z,64.79
2022-11-24T15:09:51.902Z,65.45
2022-11-24T15:12:29.231Z,65.33
2022-11-24T15:15:01.438Z,66.10
2022-11-24T15:17:31.100Z,66.30
2022-11-24T15:20:04.098Z,65.29
2022-11-24T15:22:41.371Z,66.14
2022-11-24T15:25:31.042Z,66.51
2022-11-24T15:28:01.504Z,66.61
2022-11-24T15:30:30.962Z,66.15
2022-11-24T15:33:00.572Z,66.07
2022-11-24T15:35:32.518Z,65.07
2022-11-24T15:38:01.036Z,63.39
2022-11-24T15:40:30.161Z,62.46
2022-11-24T15:43:06.135Z,61.67
2022-11-24T15:45:35.535Z,61.04
2022-11-24T15:48:03.996Z,60.07
2022-11-24T15:50:32.932Z,59.05
2022-11-24T15:53:01.695Z,58.03
2022-11-24T15:55:30.498Z,58.43
2022-11-24T15:58:00.360Z,57.74
2022-11-24T16:00:29.069Z,57.75
2022-11-24T16:02:57.809Z,57.22
2022-11-24T16:05:26.689Z,56.51
2022-11-24T16:07:55.209Z,56.34
2022-11-24T16:10:27.432Z,55.71
2022-11-24T16:12:56.007Z,55.95
2022-11-24T16:15:26.132Z,55.53
2022-11-24T16:17:54.745Z,54.89
2022-11-24T16:20:24.042Z,55.34
2022-11-24T16:22:52.454Z,55.74
2022-11-24T16:25:21.460Z,55.25
2022-11-24T16:27:49.903Z,56.13
2022-11-24T16:30:19.000Z,57.33
2022-11-24T16:32:48.950Z,56.19
2022-11-24T16:35:17.849Z,56.35
2022-11-24T16:37:46.270Z,57.32
2022-11-24T16:40:15.342Z,57.17
2022-11-24T16:42:43.819Z,56.55
2022-11-24T16:45:13.832Z,57.94
2022-11-24T16:47:43.448Z,58.61
2022-11-24T16:50:13.908Z,57.50
2022-11-24T16:52:42.419Z,57.38
2022-11-24T16:55:12.409Z,57.97
2022-11-24T16:57:40.795Z,57.66
2022-11-24T17:00:10.833Z,57.83
2022-11-24T17:02:40.171Z,59.42
2022-11-24T17:05:10.056Z,59.06
2022-11-24T17:07:40.015Z,58.33
2022-11-24T17:10:09.665Z,59.03
2022-11-24T17:12:38.234Z,58.53
2022-11-24T17:15:31.960Z,59.98
2022-11-24T17:18:22.954Z,57.85
2022-11-24T17:20:45.170Z,58.70
2022-11-24T17:23:15.633Z,58.96
2022-11-24T17:25:44.841Z,59.34
2022-11-24T17:28:13.327Z,59.92
2022-11-24T17:30:42.175Z,59.20
2022-11-24T17:33:10.761Z,58.22
2022-11-24T17:35:39.534Z,58.40
2022-11-24T17:38:08.265Z,57.65
2022-11-24T17:40:38.418Z,57.52
2022-11-24T17:43:06.887Z,56.72
2022-11-24T17:45:35.713Z,56.85
2022-11-24T17:48:04.260Z,56.21
2022-11-24T17:50:32.955Z,55.13
2022-11-24T17:53:01.497Z,54.86
2022-11-24T17:55:30.334Z,55.67
2022-11-24T17:58:00.353Z,55.47
2022-11-24T18:00:29.188Z,55.48
2022-11-24T18:02:57.848Z,56.44
2022-11-24T18:05:26.723Z,55.83
2022-11-24T18:07:55.240Z,55.59
2022-11-24T18:10:24.109Z,54.90
2022-11-24T18:12:52.783Z,55.02
2022-11-24T18:15:23.278Z,54.61
2022-11-24T18:17:53.155Z,54.50
2022-11-24T18:20:22.721Z,54.59
2022-11-24T18:23:04.989Z,55.05
2022-11-24T18:25:37.199Z,56.10
2022-11-24T18:28:05.908Z,54.92
2022-11-24T18:30:36.123Z,55.10
2022-11-24T18:33:04.659Z,56.16
2022-11-24T18:35:33.260Z,56.04
2022-11-24T18:38:01.723Z,56.98
2022-11-24T18:40:30.406Z,57.11
2022-11-24T18:42:59.094Z,57.65
2022-11-24T18:45:28.032Z,58.11
2022-11-24T18:47:57.913Z,60.47
2022-11-24T18:50:26.589Z,60.16
2022-11-24T18:52:55.025Z,60.30
2022-11-24T18:55:23.790Z,60.10
2022-11-24T18:57:52.150Z,60.57
2022-11-24T19:00:21.126Z,60.64
2022-11-24T19:02:51.898Z,60.97
2022-11-24T19:05:22.371Z,61.40
2022-11-24T19:07:50.858Z,61.09
2022-11-24T19:10:19.767Z,61.04
2022-11-24T19:12:48.199Z,61.59
2022-11-24T19:15:17.033Z,61.62
2022-11-24T19:17:47.412Z,62.53
2022-11-24T19:20:16.605Z,62.12
2022-11-24T19:22:46.768Z,61.38
2022-11-24T19:25:15.660Z,60.85
2022-11-24T19:27:44.269Z,60.03
2022-11-24T19:30:13.558Z,62.30
2022-11-24T19:32:42.158Z,62.38
2022-11-24T19:35:11.336Z,63.66
2022-11-24T19:37:39.783Z,63.60
2022-11-24T19:40:11.417Z,63.82
2022-11-24T19:42:39.869Z,63.14
2022-11-24T19:45:09.671Z,64.68
2022-11-24T19:47:39.110Z,65.02
2022-11-24T19:50:10.593Z,64.83
2022-11-24T19:52:41.133Z,65.79
2022-11-24T19:55:14.200Z,65.97
2022-11-24T19:57:44.255Z,65.54
2022-11-24T20:00:15.884Z,65.73
2022-11-24T20:02:46.408Z,66.00
2022-11-24T20:05:17.129Z,65.80
2022-11-24T20:07:45.673Z,65.67
2022-11-24T20:10:16.148Z,65.72
2022-11-24T20:12:45.094Z,66.30
2022-11-24T20:15:14.606Z,65.10
2022-11-24T20:17:43.818Z,64.68
2022-11-24T20:20:13.904Z,64.76
2022-11-24T20:22:42.665Z,63.91
2022-11-24T20:25:12.259Z,63.34
2022-11-24T20:27:42.321Z,64.16
2022-11-24T20:30:12.210Z,63.95
2022-11-24T20:32:40.600Z,63.34
2022-11-24T20:35:15.003Z,64.09
2022-11-24T20:37:46.325Z,64.64
2022-11-24T20:40:15.375Z,64.75
2022-11-24T20:42:48.079Z,64.30
2022-11-24T20:45:18.231Z,62.71
2022-11-24T20:47:47.112Z,61.65
2022-11-24T20:50:15.869Z,60.27
2022-11-24T20:52:44.338Z,59.95
2022-11-24T20:55:13.126Z,59.96
2022-11-24T20:57:41.995Z,59.11
2022-11-24T21:00:13.836Z,58.12
2022-11-24T21:02:42.385Z,57.50
2022-11-24T21:05:11.581Z,57.47
2022-11-24T21:07:39.970Z,57.00
2022-11-24T21:10:09.568Z,56.33
2022-11-24T21:12:37.977Z,56.24
2022-11-24T21:15:07.799Z,55.29
2022-11-24T21:17:37.735Z,55.91
2022-11-24T21:20:07.863Z,55.39
2022-11-24T21:22:36.427Z,54.96
2022-11-24T21:25:05.455Z,54.31
2022-11-24T21:27:33.868Z,54.31
2022-11-24T21:30:02.666Z,54.33
2022-11-24T21:32:32.259Z,54.59
2022-11-24T21:35:02.398Z,54.02
2022-11-24T21:37:30.823Z,54.03
2022-11-24T21:39:59.638Z,53.85
2022-11-24T21:42:28.172Z,53.66
2022-11-24T21:45:00.615Z,54.13
2022-11-24T21:47:29.541Z,54.08
2022-11-24T21:49:58.476Z,53.57
2022-11-24T21:52:28.656Z,56.55
2022-11-24T21:54:57.581Z,54.99
2022-11-24T21:57:26.038Z,55.35
2022-11-24T21:59:54.894Z,54.90
2022-11-24T22:02:23.361Z,55.25
2022-11-24T22:04:52.165Z,54.95
2022-11-24T22:07:20.809Z,56.66
2022-11-24T22:09:50.875Z,56.52
2022-11-24T22:12:19.222Z,55.13
2022-11-24T22:14:47.899Z,54.92
2022-11-24T22:17:16.518Z,56.51
2022-11-24T22:19:45.307Z,56.08
2022-11-24T22:22:13.837Z,55.06
2022-11-24T22:24:42.720Z,54.94
2022-11-24T22:27:12.805Z,55.85
2022-11-24T22:29:41.549Z,57.28
2022-11-24T22:32:10.156Z,56.14
2022-11-24T22:34:38.857Z,55.61
2022-11-24T22:37:07.240Z,54.75
2022-11-24T22:39:36.048Z,55.16
2022-11-24T22:42:04.666Z,55.10
2022-11-24T22:44:34.914Z,54.14
2022-11-24T22:47:03.730Z,54.73
2022-11-24T22:49:32.453Z,55.22
2022-11-24T22:52:00.958Z,55.54
2022-11-24T22:54:29.672Z,55.31
2022-11-24T22:56:58.107Z,54.92
2022-11-24T22:59:27.011Z,55.01
2022-11-24T23:01:56.824Z,55.00
2022-11-24T23:04:25.699Z,54.27
2022-11-24T23:06:54.176Z,54.22
2022-11-24T23:09:22.927Z,54.21
2022-11-24T23:11:51.371Z,54.06
2022-11-24T23:14:20.261Z,53.63
2022-11-24T23:16:48.848Z,54.98
2022-11-24T23:19:19.044Z,54.27
2022-11-24T23:21:47.477Z,54.03
2022-11-24T23:24:16.198Z,53.26
2022-11-24T23:26:44.673Z,54.09
2022-11-24T23:29:13.572Z,53.96
2022-11-24T23:31:42.126Z,53.98
2022-11-24T23:34:11.358Z,54.18
2022-11-24T23:36:41.271Z,56.27
2022-11-24T23:39:14.250Z,55.36
2022-11-24T23:41:42.708Z,58.19
2022-11-24T23:44:11.382Z,59.62
2022-11-24T23:46:39.902Z,61.56
2022-11-24T23:49:08.669Z,61.64
2022-11-24T23:51:41.528Z,61.86
2022-11-24T23:54:11.844Z,62.73
2022-11-24T23:56:40.330Z,61.69
2022-11-24T23:59:11.714Z,62.72
